Time;durP1;ratioP1;P1;durP2;ratioP2;P2;SDS_P1;SDS_P2;PMS_P1;PMS_P2;Temp;Humidity;BMP_temperature;BMP_pressure;BME280_temperature;BME280_humidity;BME280_pressure;Samples;Min_cycle;Max_cycle;Signal;HPM_P1;HPM_P2
2023/02/02 00:03:27;;;;;;;4.25;1.85;;;7.50;99.90;;;;;;9940787;28;20035;-63
2023/02/02 00:08:19;;;;;;;4.35;1.35;;;7.50;99.90;;;;;;9943024;28;20031;-63
2023/02/02 00:13:11;;;;;;;2.72;1.30;;;7.50;99.90;;;;;;9944012;28;20512;-60
2023/02/02 00:18:02;;;;;;;5.60;1.50;;;7.50;99.90;;;;;;9940795;28;20073;-60
2023/02/02 00:22:52;;;;;;;7.10;1.83;;;7.50;99.90;;;;;;9941794;28;20437;-60
2023/02/02 00:27:43;;;;;;;2.33;1.70;;;7.40;99.90;;;;;;9948111;28;20401;-60
2023/02/02 00:32:33;;;;;;;3.50;1.48;;;7.40;99.90;;;;;;9940114;28;20034;-62
2023/02/02 00:37:24;;;;;;;2.90;1.30;;;7.40;99.90;;;;;;9944580;28;20034;-60
2023/02/02 00:42:15;;;;;;;5.90;2.25;;;7.40;99.90;;;;;;9948945;28;20033;-64
2023/02/02 00:47:05;;;;;;;9.13;1.33;;;7.40;99.90;;;;;;9947323;28;20527;-62
2023/02/02 00:51:56;;;;;;;6.75;2.15;;;7.40;99.90;;;;;;9950173;28;20061;-62
2023/02/02 00:56:46;;;;;;;4.13;1.38;;;7.40;99.90;;;;;;9945799;28;20043;-61
2023/02/02 01:01:37;;;;;;;4.13;1.65;;;7.40;99.90;;;;;;9946280;28;20035;-63
2023/02/02 01:06:28;;;;;;;9.43;2.20;;;7.40;99.90;;;;;;9937795;28;20080;-62
2023/02/02 01:11:19;;;;;;;3.58;1.42;;;7.40;99.90;;;;;;9945770;28;20037;-62
2023/02/02 01:16:11;;;;;;;2.60;1.50;;;7.50;99.90;;;;;;9945735;28;20118;-61
2023/02/02 01:21:07;;;;;;;2.75;1.00;;;7.50;99.90;;;;;;9958452;28;20378;-61
2023/02/02 01:25:59;;;;;;;4.85;1.98;;;7.50;99.90;;;;;;9945015;28;20396;-61
2023/02/02 01:30:50;;;;;;;5.10;1.88;;;7.40;99.90;;;;;;9927948;28;20031;-61
2023/02/02 01:35:52;;;;;;;2.42;1.60;;;7.50;99.90;;;;;;9949216;28;20035;-61
2023/02/02 01:40:49;;;;;;;10.23;3.05;;;7.50;99.90;;;;;;9945326;28;20185;-60
2023/02/02 01:45:40;;;;;;;5.18;3.00;;;7.50;99.90;;;;;;9945552;28;20437;-59
2023/02/02 01:50:33;;;;;;;5.15;2.78;;;7.40;99.90;;;;;;9952433;28;20045;-60
2023/02/02 01:55:27;;;;;;;7.60;3.38;;;7.40;99.90;;;;;;9943735;28;20547;-60
2023/02/02 02:00:24;;;;;;;4.53;2.40;;;7.50;99.90;;;;;;9944112;28;20278;-60
2023/02/02 02:05:24;;;;;;;6.53;2.47;;;7.50;99.90;;;;;;9949575;28;20054;-60
2023/02/02 02:10:16;;;;;;;4.35;2.28;;;7.50;99.90;;;;;;9911576;28;20098;-61
2023/02/02 02:26:32;;;;;;;5.75;1.90;;;7.50;99.90;;;;;;9935411;28;20038;-60
2023/02/02 02:31:32;;;;;;;9.20;1.65;;;7.50;99.90;;;;;;9902847;28;20094;-60
2023/02/02 02:36:34;;;;;;;2.10;1.20;;;7.60;99.90;;;;;;9943163;28;20042;-60
2023/02/02 02:41:30;;;;;;;2.42;1.27;;;7.60;99.90;;;;;;9942770;28;20031;-62
2023/02/02 02:46:22;;;;;;;3.92;1.30;;;7.60;99.90;;;;;;9953060;28;20034;-62
2023/02/02 02:51:46;;;;;;;3.13;1.63;;;7.60;99.90;;;;;;9942441;28;20035;-61
2023/02/02 02:57:04;;;;;;;3.00;1.27;;;7.50;99.90;;;;;;9958926;28;20129;-60
2023/02/02 03:02:19;;;;;;;3.55;1.20;;;7.50;99.90;;;;;;9918943;28;20038;-62
2023/02/02 03:07:17;;;;;;;5.22;1.83;;;7.40;99.90;;;;;;9938873;28;20026;-60
2023/02/02 03:12:08;;;;;;;2.03;1.40;;;7.40;99.90;;;;;;9945479;28;20038;-61
2023/02/02 03:16:59;;;;;;;3.47;1.48;;;7.30;99.90;;;;;;9942449;28;20063;-62
2023/02/02 03:21:49;;;;;;;4.72;1.80;;;7.30;99.90;;;;;;9941248;28;20027;-60
2023/02/02 03:26:40;;;;;;;2.80;1.13;;;7.30;99.90;;;;;;9950296;28;20080;-60
2023/02/02 03:31:31;;;;;;;2.05;1.08;;;7.30;99.90;;;;;;9941817;28;20027;-61
2023/02/02 03:36:22;;;;;;;3.60;2.20;;;7.30;99.90;;;;;;9941416;28;20067;-61
2023/02/02 03:41:12;;;;;;;5.45;1.60;;;7.30;99.90;;;;;;9942271;28;20031;-60
2023/02/02 03:46:04;;;;;;;5.03;1.08;;;7.20;99.90;;;;;;9940983;28;20034;-59
2023/02/02 03:50:55;;;;;;;4.88;2.42;;;7.30;99.90;;;;;;9941105;28;20095;-60
2023/02/02 03:55:46;;;;;;;2.45;1.05;;;7.30;99.90;;;;;;9946039;28;20039;-60
2023/02/02 04:00:36;;;;;;;6.47;1.52;;;7.30;99.90;;;;;;9940134;28;20018;-60
2023/02/02 04:05:28;;;;;;;2.58;1.13;;;7.30;99.90;;;;;;9948192;28;20027;-63
2023/02/02 04:10:18;;;;;;;1.73;1.10;;;7.30;99.90;;;;;;9948599;28;20420;-61
2023/02/02 04:15:10;;;;;;;1.85;1.13;;;7.30;99.90;;;;;;9939740;28;20652;-61
2023/02/02 04:20:02;;;;;;;5.53;1.20;;;7.30;99.90;;;;;;9946607;28;20035;-61
2023/02/02 04:24:53;;;;;;;1.90;1.02;;;7.30;99.90;;;;;;9948818;28;20559;-62
2023/02/02 04:29:43;;;;;;;2.15;1.08;;;7.30;99.90;;;;;;9947942;28;20031;-62
2023/02/02 04:34:34;;;;;;;4.05;0.93;;;7.30;99.90;;;;;;9947794;28;20034;-63
2023/02/02 04:39:24;;;;;;;7.57;1.55;;;7.40;99.90;;;;;;9952677;28;20015;-60
2023/02/02 04:44:16;;;;;;;1.42;0.90;;;7.40;99.90;;;;;;9946597;28;20046;-61
2023/02/02 04:49:11;;;;;;;5.20;0.80;;;7.40;99.90;;;;;;9946759;28;20034;-60
2023/02/02 04:54:01;;;;;;;3.67;1.27;;;7.40;99.90;;;;;;9956913;28;20528;-61
2023/02/02 04:58:53;;;;;;;3.85;1.52;;;7.50;99.90;;;;;;9945544;28;20035;-60
2023/02/02 05:03:44;;;;;;;2.80;1.13;;;7.50;99.90;;;;;;9945942;28;20034;-61
2023/02/02 05:08:36;;;;;;;1.27;0.90;;;7.50;99.90;;;;;;9948803;28;20397;-61
2023/02/02 05:13:26;;;;;;;6.85;1.38;;;7.50;99.90;;;;;;9945675;28;20055;-60
2023/02/02 05:18:17;;;;;;;3.58;1.42;;;7.50;99.90;;;;;;9947365;28;20458;-62
2023/02/02 05:23:07;;;;;;;2.20;1.17;;;7.60;99.90;;;;;;9950144;28;20509;-61
2023/02/02 05:27:58;;;;;;;2.22;1.15;;;7.50;99.90;;;;;;9945370;28;20042;-61
2023/02/02 05:32:49;;;;;;;4.10;1.25;;;7.40;99.90;;;;;;9950264;28;20065;-60
2023/02/02 05:37:42;;;;;;;1.73;1.23;;;7.40;99.90;;;;;;9950930;28;20429;-61
2023/02/02 05:42:32;;;;;;;5.13;1.20;;;7.40;99.90;;;;;;9945357;28;20065;-61
2023/02/02 05:47:23;;;;;;;2.80;1.30;;;7.40;99.90;;;;;;9930204;28;20027;-60
2023/02/02 05:52:20;;;;;;;2.05;1.17;;;7.40;99.90;;;;;;9944733;28;20027;-60
2023/02/02 05:57:11;;;;;;;4.72;1.55;;;7.40;99.90;;;;;;9944741;28;20038;-60
2023/02/02 06:02:02;;;;;;;3.08;0.88;;;7.30;99.90;;;;;;9948775;28;20488;-61
2023/02/02 06:06:53;;;;;;;1.90;1.58;;;7.30;99.90;;;;;;9948189;28;20035;-59
2023/02/02 06:11:44;;;;;;;2.25;1.27;;;7.20;99.90;;;;;;9942492;28;20467;-60
2023/02/02 06:16:35;;;;;;;2.90;2.05;;;7.20;99.90;;;;;;9952602;28;20042;-60
2023/02/02 06:21:29;;;;;;;3.25;1.45;;;7.20;99.90;;;;;;9943624;28;20039;-59
2023/02/02 06:26:20;;;;;;;3.17;1.10;;;7.30;99.90;;;;;;9943739;28;20366;-61
2023/02/02 06:31:11;;;;;;;4.95;1.67;;;7.30;99.90;;;;;;9945217;28;20030;-60
2023/02/02 06:36:03;;;;;;;4.47;1.70;;;7.30;99.90;;;;;;9951963;28;20050;-60
2023/02/02 06:40:54;;;;;;;5.72;1.42;;;7.40;99.90;;;;;;9941845;28;20023;-60
2023/02/02 06:45:45;;;;;;;4.80;1.75;;;7.40;99.90;;;;;;9941053;28;20511;-61
2023/02/02 06:50:37;;;;;;;1.80;1.60;;;7.40;99.90;;;;;;9940039;28;20031;-60
2023/02/02 06:55:27;;;;;;;3.22;1.20;;;7.30;99.90;;;;;;9942303;28;20070;-60
2023/02/02 07:00:18;;;;;;;5.93;1.45;;;7.30;99.90;;;;;;9942647;28;20050;-61
2023/02/02 07:05:09;;;;;;;5.38;1.60;;;7.30;99.90;;;;;;9944092;28;20106;-61
2023/02/02 07:10:00;;;;;;;1.80;1.40;;;7.20;99.90;;;;;;9942133;28;20019;-62
2023/02/02 07:14:50;;;;;;;4.40;2.15;;;7.20;99.90;;;;;;9940889;28;20544;-60
2023/02/02 07:19:41;;;;;;;3.42;1.63;;;7.30;99.90;;;;;;9922690;28;20448;-61
2023/02/02 07:24:32;;;;;;;7.78;1.67;;;7.30;99.90;;;;;;9940049;28;20031;-61
2023/02/02 07:29:22;;;;;;;4.30;1.80;;;7.30;99.90;;;;;;9926135;28;20129;-63
2023/02/02 07:34:13;;;;;;;2.45;1.70;;;7.40;99.90;;;;;;9939384;28;20039;-61
2023/02/02 07:39:04;;;;;;;2.00;1.73;;;7.40;99.90;;;;;;9939376;28;20057;-60
2023/02/02 07:43:55;;;;;;;5.78;1.92;;;7.40;99.90;;;;;;9939211;28;20157;-60
2023/02/02 07:48:46;;;;;;;2.90;2.15;;;7.40;99.90;;;;;;9939172;28;20106;-60
2023/02/02 07:53:37;;;;;;;3.17;2.00;;;7.50;99.90;;;;;;9942948;28;20061;-62
2023/02/02 07:58:27;;;;;;;6.57;1.67;;;7.50;99.90;;;;;;9946359;28;20034;-59
2023/02/02 08:03:18;;;;;;;3.28;1.55;;;7.60;99.90;;;;;;9946253;28;20343;-58
2023/02/02 08:08:09;;;;;;;3.47;1.15;;;7.70;99.90;;;;;;9952734;28;20110;-59
2023/02/02 08:12:59;;;;;;;6.20;1.75;;;7.80;99.90;;;;;;9903011;28;1268775;-57
2023/02/02 08:17:50;;;;;;;4.85;1.35;;;7.80;99.90;;;;;;9947686;28;20046;-61
2023/02/02 08:22:41;;;;;;;3.00;1.50;;;8.00;99.90;;;;;;9956573;28;20507;-60
2023/02/02 08:27:32;;;;;;;6.10;1.80;;;8.10;99.90;;;;;;9946656;28;20027;-60
2023/02/02 08:32:22;;;;;;;1.50;1.10;;;8.10;99.90;;;;;;9929530;28;20045;-60
2023/02/02 08:37:13;;;;;;;6.03;1.02;;;8.10;99.90;;;;;;9946972;28;20043;-60
2023/02/02 08:42:03;;;;;;;3.80;1.25;;;8.10;99.90;;;;;;9947112;28;20432;-59
2023/02/02 08:46:54;;;;;;;3.10;1.35;;;8.20;99.90;;;;;;9946972;28;20029;-60
2023/02/02 08:51:45;;;;;;;1.65;1.10;;;8.20;99.90;;;;;;9950877;28;20030;-63
2023/02/02 08:56:35;;;;;;;2.75;1.85;;;8.40;99.90;;;;;;9946510;28;20039;-61
2023/02/02 09:01:28;;;;;;;6.20;1.38;;;8.60;99.90;;;;;;9946199;28;20085;-61
2023/02/02 09:06:19;;;;;;;1.88;1.15;;;8.70;99.90;;;;;;9936671;28;20522;-60
2023/02/02 09:11:16;;;;;;;3.97;1.90;;;8.60;99.90;;;;;;9946469;28;20106;-61
2023/02/02 09:16:09;;;;;;;8.70;2.20;;;8.50;99.90;;;;;;9945799;28;20121;-63
2023/02/02 09:21:02;;;;;;;3.35;1.30;;;8.40;99.90;;;;;;9928411;28;20023;-60
2023/02/02 09:25:53;;;;;;;4.32;1.23;;;8.50;99.90;;;;;;9945380;28;20031;-63
2023/02/02 09:30:44;;;;;;;3.72;1.65;;;8.50;99.90;;;;;;9945699;28;20077;-61
2023/02/02 09:35:34;;;;;;;12.70;2.10;;;8.60;99.90;;;;;;9949165;28;20120;-62
2023/02/02 09:40:26;;;;;;;2.55;1.35;;;8.70;99.90;;;;;;9935380;28;20031;-62
2023/02/02 09:45:52;;;;;;;3.08;1.70;;;8.80;99.90;;;;;;9944771;28;20058;-63
2023/02/02 09:50:49;;;;;;;3.17;1.27;;;9.00;99.90;;;;;;9945329;28;20105;-64
2023/02/02 09:55:44;;;;;;;8.18;1.60;;;9.20;99.90;;;;;;9945209;28;20039;-64
2023/02/02 10:00:58;;;;;;;3.40;1.58;;;9.30;99.90;;;;;;9950400;28;20385;-62
2023/02/02 10:06:16;;;;;;;6.57;1.83;;;9.50;99.90;;;;;;9940505;28;20041;-61
2023/02/02 10:11:50;;;;;;;2.83;1.60;;;9.50;99.90;;;;;;9934540;28;20022;-61
2023/02/02 10:16:42;;;;;;;5.97;1.90;;;9.50;99.90;;;;;;9921932;28;20050;-62
2023/02/02 10:22:13;;;;;;;3.80;1.50;;;9.50;99.90;;;;;;9942958;28;20505;-62
2023/02/02 10:27:12;;;;;;;4.63;1.48;;;9.60;99.90;;;;;;9942659;28;20090;-62
2023/02/02 10:32:12;;;;;;;1.52;1.05;;;9.60;99.90;;;;;;9932769;28;20511;-61
2023/02/02 10:37:11;;;;;;;3.35;1.10;;;9.60;99.90;;;;;;9943154;28;20501;-61
2023/02/02 10:42:12;;;;;;;4.47;1.23;;;9.80;99.90;;;;;;9946227;28;20033;-63
2023/02/02 10:47:08;;;;;;;4.25;1.60;;;9.90;99.90;;;;;;9932351;28;20090;-61
2023/02/02 10:52:10;;;;;;;3.75;1.58;;;9.80;99.90;;;;;;9942077;28;20072;-64
2023/02/02 10:57:03;;;;;;;5.72;2.00;;;9.90;99.90;;;;;;9946975;28;20041;-65
2023/02/02 11:01:54;;;;;;;3.92;1.67;;;9.90;99.90;;;;;;9941261;28;20035;-61
2023/02/02 11:06:51;;;;;;;7.07;1.48;;;9.80;99.90;;;;;;9943051;28;20485;-59
2023/02/02 11:11:45;;;;;;;4.93;1.38;;;9.60;99.90;;;;;;9948985;28;20037;-61
2023/02/02 11:16:37;;;;;;;2.60;1.33;;;9.60;99.90;;;;;;9941372;28;20035;-64
2023/02/02 11:21:33;;;;;;;3.97;1.77;;;9.60;99.90;;;;;;9940972;28;20078;-66
2023/02/02 11:26:24;;;;;;;;;;;9.60;99.90;;;;;;9953922;28;20113;-64
2023/02/02 11:31:35;;;;;;;3.65;1.40;;;9.50;99.90;;;;;;9923500;28;20440;-65
2023/02/02 11:36:26;;;;;;;5.00;1.70;;;9.50;99.90;;;;;;9941111;28;20081;-65
2023/02/02 11:41:18;;;;;;;6.68;2.72;;;9.50;99.90;;;;;;9944767;28;20058;-65
2023/02/02 11:46:23;;;;;;;8.32;3.25;;;9.60;99.90;;;;;;9940601;28;20500;-66
2023/02/02 11:51:22;;;;;;;9.75;2.72;;;9.50;99.90;;;;;;9940854;28;20049;-66
2023/02/02 11:56:23;;;;;;;4.65;1.95;;;9.50;99.90;;;;;;9944653;28;20038;-65
2023/02/02 12:01:22;;;;;;;4.65;2.00;;;9.50;99.90;;;;;;9940035;28;20026;-65
2023/02/02 12:06:21;;;;;;;5.57;3.58;;;9.60;99.90;;;;;;9944205;28;20090;-63
2023/02/02 12:11:42;;;;;;;7.10;2.08;;;9.70;99.90;;;;;;9948647;28;20460;-64
2023/02/02 12:17:04;;;;;;;4.50;1.48;;;9.70;99.90;;;;;;9932006;28;20066;-65
2023/02/02 12:22:00;;;;;;;7.30;1.73;;;9.80;99.90;;;;;;9944106;28;20023;-62
2023/02/02 12:27:09;;;;;;;6.25;2.30;;;9.90;99.90;;;;;;9932812;28;20393;-65
2023/02/02 12:32:10;;;;;;;5.68;1.33;;;9.90;99.90;;;;;;9939316;28;20034;-65
2023/02/02 12:37:37;;;;;;;4.60;1.85;;;9.90;99.90;;;;;;9940002;28;20045;-66
2023/02/02 12:42:48;;;;;;;6.53;1.50;;;9.90;99.90;;;;;;9941958;28;20034;-65
2023/02/02 12:48:14;;;;;;;5.80;2.22;;;10.00;99.90;;;;;;9932785;28;20109;-65
2023/02/02 12:53:29;;;;;;;7.32;2.08;;;9.90;99.90;;;;;;9942446;28;20049;-65
2023/02/02 12:58:56;;;;;;;4.22;1.73;;;9.80;99.90;;;;;;9943702;28;20074;-66
2023/02/02 13:04:05;;;;;;;;;;;9.70;99.90;;;;;;9943653;28;20047;-67
2023/02/02 13:09:16;;;;;;;5.07;1.77;;;9.60;99.90;;;;;;9943224;28;19920;-66
2023/02/02 13:14:14;;;;;;;3.63;1.23;;;9.70;99.90;;;;;;9942250;28;20432;-65
2023/02/02 13:19:09;;;;;;;2.80;1.73;;;9.70;99.90;;;;;;9949605;28;20042;-67
2023/02/02 13:24:04;;;;;;;6.78;1.50;;;9.90;99.90;;;;;;9942978;28;20042;-67
2023/02/02 13:29:05;;;;;;;7.10;1.38;;;10.00;99.90;;;;;;9945302;28;20078;-66
2023/02/02 13:34:26;;;;;;;3.72;1.75;;;10.00;99.90;;;;;;9942033;28;20443;-66
2023/02/02 13:39:21;;;;;;;4.93;1.67;;;10.00;99.90;;;;;;9934194;28;20118;-64
2023/02/02 13:44:31;;;;;;;3.42;1.48;;;10.00;99.90;;;;;;9941947;28;20023;-66
2023/02/02 13:49:32;;;;;;;3.38;1.38;;;9.80;99.90;;;;;;9936715;28;20025;-65
2023/02/02 13:54:52;;;;;;;4.40;1.55;;;9.70;99.90;;;;;;9942110;28;20042;-66
2023/02/02 14:00:16;;;;;;;5.15;1.50;;;9.80;99.90;;;;;;9941928;28;20396;-66
2023/02/02 14:05:19;;;;;;;9.88;1.48;;;9.90;99.90;;;;;;9946234;28;20039;-61
2023/02/02 14:11:03;;;;;;;4.65;1.40;;;9.90;99.90;;;;;;9940901;28;20052;-61
2023/02/02 14:15:55;;;;;;;3.17;2.13;;;9.90;99.90;;;;;;9925719;28;20067;-63
2023/02/02 14:20:48;;;;;;;3.60;1.25;;;9.80;99.90;;;;;;9941147;28;20019;-64
2023/02/02 14:25:41;;;;;;;2.53;1.55;;;9.80;99.90;;;;;;9940319;28;20034;-63
2023/02/02 14:30:35;;;;;;;2.63;2.13;;;9.80;99.90;;;;;;9943612;28;20074;-62
2023/02/02 14:35:25;;;;;;;3.63;1.15;;;9.80;99.90;;;;;;9922867;28;20520;-61
2023/02/02 14:40:22;;;;;;;3.33;0.93;;;9.80;99.90;;;;;;9910385;28;20121;-60
2023/02/02 14:45:25;;;;;;;1.65;0.95;;;9.90;99.90;;;;;;9942162;28;20182;-60
2023/02/02 14:50:36;;;;;;;2.10;0.90;;;9.80;99.90;;;;;;9940118;28;20177;-61
2023/02/02 14:55:27;;;;;;;2.00;1.20;;;9.80;99.90;;;;;;9932707;28;20062;-60
2023/02/02 15:00:22;;;;;;;2.00;0.80;;;9.70;99.90;;;;;;9938453;28;20033;-66
2023/02/02 15:05:29;;;;;;;1.55;0.70;;;9.60;99.90;;;;;;9941215;28;20034;-65
2023/02/02 15:10:52;;;;;;;1.00;0.77;;;9.50;99.90;;;;;;9935612;28;20034;-62
2023/02/02 15:15:45;;;;;;;2.50;0.93;;;9.50;99.90;;;;;;9916515;28;20142;-62
2023/02/02 15:20:44;;;;;;;1.90;0.50;;;9.40;99.90;;;;;;9938607;28;20090;-63
2023/02/02 15:25:45;;;;;;;4.15;0.90;;;9.30;99.90;;;;;;9928367;28;20054;-66
2023/02/02 15:30:40;;;;;;;1.08;0.70;;;9.40;99.90;;;;;;9939326;28;20447;-65
2023/02/02 15:35:31;;;;;;;0.77;0.45;;;9.30;99.90;;;;;;9937538;28;20101;-65
2023/02/02 15:40:25;;;;;;;5.07;0.98;;;9.30;99.90;;;;;;9948742;28;20106;-66
2023/02/02 15:45:28;;;;;;;3.10;1.60;;;9.40;99.90;;;;;;9920709;28;20030;-64
2023/02/02 15:50:20;;;;;;;1.02;0.80;;;9.30;99.90;;;;;;9939035;28;20023;-67
2023/02/02 15:55:30;;;;;;;3.85;2.42;;;9.30;99.90;;;;;;9938319;28;20440;-64
2023/02/02 16:00:27;;;;;;;4.22;0.82;;;9.30;99.90;;;;;;9938446;28;20461;-64
2023/02/02 16:05:42;;;;;;;2.03;1.08;;;9.30;99.90;;;;;;9940091;28;20039;-72
2023/02/02 16:10:34;;;;;;;1.38;0.80;;;9.30;99.90;;;;;;9938077;28;20037;-68
2023/02/02 16:15:27;;;;;;;1.83;0.93;;;9.20;99.90;;;;;;9937931;28;20141;-67
2023/02/02 16:20:18;;;;;;;4.70;1.70;;;9.20;99.90;;;;;;9944750;28;20026;-71
2023/02/02 16:25:14;;;;;;;3.83;1.10;;;9.30;99.90;;;;;;9943531;28;20031;-69
2023/02/02 16:30:06;;;;;;;;;;;9.30;99.90;;;;;;9944378;28;20022;-69
2023/02/02 16:34:58;;;;;;;1.90;1.35;;;9.20;99.90;;;;;;9939100;28;20016;-69
2023/02/02 16:39:49;;;;;;;2.38;0.88;;;9.10;99.90;;;;;;9944592;28;20027;-67
2023/02/02 16:44:42;;;;;;;1.30;0.40;;;9.10;99.90;;;;;;9943579;28;20033;-69
2023/02/02 16:49:34;;;;;;;2.13;0.98;;;9.00;99.90;;;;;;9943683;28;20552;-65
2023/02/02 16:54:25;;;;;;;1.77;1.02;;;9.00;99.90;;;;;;9943885;28;20034;-71
2023/02/02 16:59:26;;;;;;;1.13;0.68;;;9.00;99.90;;;;;;9943068;28;20089;-69
2023/02/02 17:04:22;;;;;;;1.52;0.63;;;8.90;99.90;;;;;;9938077;28;20077;-66
2023/02/02 17:09:31;;;;;;;2.25;0.77;;;8.90;99.90;;;;;;9944716;28;20477;-62
2023/02/02 17:15:00;;;;;;;0.88;0.45;;;9.00;99.90;;;;;;9943248;28;20078;-66
2023/02/02 17:19:51;;;;;;;1.83;0.85;;;9.00;99.90;;;;;;9941714;28;20118;-65
2023/02/02 17:24:44;;;;;;;3.65;1.80;;;9.00;99.90;;;;;;9942790;28;20114;-65
2023/02/02 17:29:35;;;;;;;2.75;1.23;;;9.00;99.90;;;;;;9942691;28;20027;-64
2023/02/02 17:34:26;;;;;;;1.58;1.27;;;9.00;99.90;;;;;;9942048;28;20389;-64
2023/02/02 17:39:16;;;;;;;1.25;0.95;;;9.00;99.90;;;;;;9942884;28;20113;-66
2023/02/02 17:44:09;;;;;;;2.17;0.85;;;9.10;99.90;;;;;;9943057;28;20025;-66
2023/02/02 17:48:59;;;;;;;2.28;1.00;;;9.10;99.90;;;;;;9923740;28;20046;-65
2023/02/02 17:53:51;;;;;;;2.78;0.85;;;9.10;99.90;;;;;;9924097;28;20030;-65
2023/02/02 17:58:41;;;;;;;1.27;0.85;;;9.00;99.90;;;;;;9942522;28;20038;-65
2023/02/02 18:03:34;;;;;;;2.47;1.13;;;9.00;99.90;;;;;;9940999;28;20050;-66
2023/02/02 18:08:25;;;;;;;1.15;0.60;;;8.90;99.90;;;;;;9942718;28;20465;-66
2023/02/02 18:13:18;;;;;;;1.45;0.77;;;8.90;99.90;;;;;;9941224;28;20137;-65
2023/02/02 18:18:11;;;;;;;2.65;1.00;;;8.90;99.90;;;;;;9940835;28;20458;-65
2023/02/02 18:23:01;;;;;;;2.17;0.85;;;8.90;99.90;;;;;;9941020;28;20031;-66
2023/02/02 18:27:52;;;;;;;2.22;0.60;;;8.90;99.90;;;;;;9941516;28;20037;-65
2023/02/02 18:32:43;;;;;;;2.33;1.00;;;8.80;99.90;;;;;;9940650;28;20034;-65
2023/02/02 18:37:34;;;;;;;2.75;1.38;;;8.80;99.90;;;;;;9939513;28;20153;-67
2023/02/02 18:42:28;;;;;;;2.63;1.60;;;8.90;99.90;;;;;;9940850;28;20661;-65
2023/02/02 18:47:19;;;;;;;2.55;1.08;;;9.00;99.90;;;;;;9939884;28;20512;-65
2023/02/02 18:52:09;;;;;;;2.00;1.17;;;8.90;99.90;;;;;;9939936;28;20019;-66
2023/02/02 18:57:01;;;;;;;1.63;1.00;;;8.90;99.90;;;;;;9936366;28;20084;-65
2023/02/02 19:01:51;;;;;;;1.60;0.95;;;9.00;99.90;;;;;;9922416;28;20057;-66
2023/02/02 19:11:53;;;;;;;1.00;0.77;;;8.90;99.90;;;;;;9943679;28;20345;-66
2023/02/02 19:16:46;;;;;;;5.35;1.40;;;8.90;99.90;;;;;;9938658;28;20054;-66
2023/02/02 19:21:37;;;;;;;1.83;0.90;;;8.90;99.90;;;;;;9938984;28;20015;-66
2023/02/02 19:26:29;;;;;;;4.15;1.50;;;9.00;99.90;;;;;;9939210;28;20027;-66
2023/02/02 19:31:19;;;;;;;1.60;1.02;;;9.00;99.90;;;;;;9938851;28;20019;-65
2023/02/02 19:36:22;;;;;;;2.78;1.60;;;9.00;99.90;;;;;;9921862;28;20047;-65
2023/02/02 19:41:24;;;;;;;2.47;1.15;;;9.00;99.90;;;;;;9939121;28;20015;-65
2023/02/02 19:46:20;;;;;;;2.30;1.52;;;9.00;99.90;;;;;;9938310;28;20121;-65
2023/02/02 19:51:40;;;;;;;1.48;1.20;;;8.90;99.90;;;;;;9928786;28;20276;-65
2023/02/02 19:56:38;;;;;;;6.45;3.15;;;9.00;99.90;;;;;;9946028;28;20074;-65
2023/02/02 20:01:33;;;;;;;3.83;2.20;;;9.00;99.90;;;;;;9946478;28;20398;-65
2023/02/02 20:06:29;;;;;;;4.35;2.65;;;9.00;99.90;;;;;;9945431;28;20476;-65
2023/02/02 20:11:31;;;;;;;1.92;1.00;;;9.00;99.90;;;;;;9945558;28;20089;-65
2023/02/02 20:16:23;;;;;;;2.13;1.27;;;9.00;99.90;;;;;;9945247;28;20039;-67
2023/02/02 20:21:36;;;;;;;3.05;1.10;;;8.90;99.90;;;;;;9946282;28;20483;-66
2023/02/02 20:26:33;;;;;;;1.65;0.98;;;8.90;99.90;;;;;;9944596;28;20508;-66
2023/02/02 20:31:35;;;;;;;3.35;1.30;;;8.80;99.90;;;;;;9943792;28;20517;-64
2023/02/02 20:36:27;;;;;;;2.90;1.00;;;8.70;99.90;;;;;;9941590;28;20054;-65
2023/02/02 20:41:18;;;;;;;6.25;1.52;;;8.60;99.90;;;;;;9944851;28;20073;-68
2023/02/02 20:46:08;;;;;;;4.07;1.42;;;8.50;99.90;;;;;;9927240;28;20033;-67
2023/02/02 20:50:59;;;;;;;4.45;1.20;;;8.40;99.90;;;;;;9944258;28;20029;-66
2023/02/02 20:55:55;;;;;;;2.35;1.45;;;8.40;99.90;;;;;;9943587;28;20449;-68
2023/02/02 21:00:46;;;;;;;3.03;1.60;;;8.50;99.90;;;;;;9945165;28;20149;-66
2023/02/02 21:05:36;;;;;;;2.00;1.45;;;8.50;99.90;;;;;;9941809;28;20118;-66
2023/02/02 21:10:27;;;;;;;1.85;1.20;;;8.50;99.90;;;;;;9941925;28;20026;-66
2023/02/02 21:15:18;;;;;;;2.75;1.20;;;8.40;99.90;;;;;;9942297;28;20062;-66
2023/02/02 21:20:10;;;;;;;3.33;1.95;;;8.30;99.90;;;;;;9925274;28;20516;-65
2023/02/02 21:25:00;;;;;;;2.10;0.98;;;8.30;99.90;;;;;;9944450;28;20030;-66
2023/02/02 21:29:51;;;;;;;2.42;1.30;;;8.30;99.90;;;;;;9942795;28;20029;-64
2023/02/02 21:34:41;;;;;;;3.70;1.52;;;8.30;99.90;;;;;;9941880;28;20030;-64
2023/02/02 21:39:35;;;;;;;2.75;1.45;;;8.30;99.90;;;;;;9942464;28;20058;-65
2023/02/02 21:44:26;;;;;;;3.03;1.50;;;8.30;99.90;;;;;;9947862;28;20023;-66
2023/02/02 21:49:26;;;;;;;2.20;1.60;;;8.30;99.90;;;;;;9942670;28;20106;-65
2023/02/02 21:54:34;;;;;;;3.63;1.48;;;8.40;99.90;;;;;;9941496;28;20034;-66
2023/02/02 21:59:32;;;;;;;3.00;1.17;;;8.40;99.90;;;;;;9937378;28;20435;-64
2023/02/02 22:04:25;;;;;;;2.35;0.88;;;8.30;99.90;;;;;;9927911;28;20045;-64
2023/02/02 22:09:20;;;;;;;4.95;1.63;;;8.30;99.90;;;;;;9942050;28;20067;-64
2023/02/02 22:14:36;;;;;;;4.53;1.52;;;8.50;99.90;;;;;;9925236;28;20142;-65
2023/02/02 22:19:31;;;;;;;3.58;1.50;;;8.50;99.90;;;;;;9941646;28;20047;-64
2023/02/02 22:24:24;;;;;;;1.60;1.20;;;8.50;99.90;;;;;;9940591;28;20552;-64
2023/02/02 22:29:17;;;;;;;3.65;1.85;;;8.40;99.90;;;;;;9936785;28;20077;-65
2023/02/02 22:34:08;;;;;;;2.95;1.50;;;8.40;99.90;;;;;;9935996;28;20529;-64
2023/02/02 22:38:59;;;;;;;1.70;0.82;;;8.40;99.90;;;;;;9943874;28;20023;-66
2023/02/02 22:43:49;;;;;;;2.97;1.08;;;8.40;99.90;;;;;;9962062;28;20527;-64
2023/02/02 22:48:40;;;;;;;3.33;2.47;;;8.30;99.90;;;;;;9943268;28;20038;-67
2023/02/02 22:53:31;;;;;;;3.78;1.05;;;8.30;99.90;;;;;;9941149;28;20310;-65
2023/02/02 22:58:23;;;;;;;1.15;0.90;;;8.30;99.90;;;;;;9942026;28;20034;-64
2023/02/02 23:03:14;;;;;;;3.33;1.23;;;8.30;99.90;;;;;;9946695;28;20027;-63
2023/02/02 23:08:04;;;;;;;3.20;1.00;;;8.30;99.90;;;;;;9946753;28;20527;-64
2023/02/02 23:12:57;;;;;;;3.22;1.30;;;8.10;99.90;;;;;;9945021;28;20050;-63
2023/02/02 23:17:48;;;;;;;2.13;1.77;;;8.30;99.90;;;;;;9941456;28;20030;-63
2023/02/02 23:22:41;;;;;;;1.55;1.25;;;8.20;99.90;;;;;;9942501;28;20085;-63
2023/02/02 23:27:32;;;;;;;2.13;0.90;;;8.20;99.90;;;;;;9940731;28;20061;-65
2023/02/02 23:32:23;;;;;;;3.95;0.80;;;8.20;99.90;;;;;;9940865;28;20401;-64
2023/02/02 23:37:13;;;;;;;1.83;1.20;;;8.10;99.90;;;;;;9943278;28;20532;-67
2023/02/02 23:42:04;;;;;;;1.27;0.77;;;8.10;99.90;;;;;;9940898;28;20116;-67
2023/02/02 23:46:55;;;;;;;1.38;0.93;;;8.10;99.90;;;;;;9940914;28;20031;-64
2023/02/02 23:51:46;;;;;;;3.58;1.35;;;8.10;99.90;;;;;;9944336;28;20115;-65
2023/02/02 23:56:37;;;;;;;2.10;1.13;;;8.10;99.90;;;;;;9940555;28;20370;-64
